Time;durP1;ratioP1;P1;durP2;ratioP2;P2;SDS_P1;SDS_P2;PMS_P1;PMS_P2;Temp;Humidity;BMP_temperature;BMP_pressure;BME280_temperature;BME280_humidity;BME280_pressure;Samples;Min_cycle;Max_cycle;Signal;HPM_P1;HPM_P2
2024/04/22 00:02:04;;;;;;;5.25;2.70;;;6.10;99.90;;;;;;5499056;26;19990;-67
2024/04/22 00:04:30;;;;;;;6.32;3.78;;;5.90;99.80;;;;;;5498057;26;20187;-67
2024/04/22 00:06:55;;;;;;;6.03;2.88;;;6.00;99.90;;;;;;5498881;26;20035;-67
2024/04/22 00:09:21;;;;;;;7.85;3.17;;;6.00;99.90;;;;;;5499183;26;20195;-67
2024/04/22 00:11:46;;;;;;;7.10;3.30;;;5.90;99.60;;;;;;5499015;26;20273;-67
2024/04/22 00:14:12;;;;;;;3.22;2.55;;;5.90;99.40;;;;;;5500152;26;20091;-67
2024/04/22 00:16:39;;;;;;;7.00;3.72;;;5.90;99.70;;;;;;5499181;26;20047;-67
2024/04/22 00:19:05;;;;;;;5.57;2.75;;;5.80;99.90;;;;;;5502496;26;19986;-66
2024/04/22 00:21:30;;;;;;;7.32;3.25;;;5.80;99.90;;;;;;5498767;26;19990;-67
2024/04/22 00:23:56;;;;;;;7.32;4.00;;;5.80;99.90;;;;;;5498912;26;20246;-67
2024/04/22 00:26:22;;;;;;;7.15;2.95;;;5.90;99.90;;;;;;5504282;26;20157;-66
2024/04/22 00:28:48;;;;;;;7.57;2.97;;;5.80;99.90;;;;;;5540330;25;19985;-67
2024/04/22 00:31:14;;;;;;;5.28;3.63;;;5.90;99.90;;;;;;5537000;25;19997;-66
2024/04/22 00:33:39;;;;;;;8.20;3.75;;;5.80;99.90;;;;;;5535674;25;19989;-67
2024/04/22 00:36:05;;;;;;;9.18;3.70;;;3.80;99.90;;;;;;5473979;25;19986;-67
2024/04/22 00:38:32;;;;;;;11.20;4.18;;;5.90;99.90;;;;;;5536590;25;19989;-67
2024/04/22 00:40:58;;;;;;;11.15;3.47;;;5.80;99.90;;;;;;5535590;25;20231;-66
2024/04/22 00:43:24;;;;;;;7.95;3.80;;;5.80;99.90;;;;;;5529374;26;19985;-67
2024/04/22 00:45:51;;;;;;;6.90;3.40;;;5.80;99.90;;;;;;5535357;25;20009;-65
2024/04/22 00:48:19;;;;;;;5.50;2.97;;;5.80;99.90;;;;;;5536852;25;20014;-65
2024/04/22 00:50:47;;;;;;;4.85;2.97;;;5.80;99.90;;;;;;5535514;25;20005;-64
2024/04/22 00:53:15;;;;;;;8.73;3.47;;;5.80;99.90;;;;;;5503814;26;19986;-64
2024/04/22 00:55:41;;;;;;;6.30;2.90;;;5.80;99.90;;;;;;5535392;25;20041;-64
2024/04/22 00:58:10;;;;;;;6.90;3.38;;;5.80;99.90;;;;;;5537329;25;20386;-64
2024/04/22 01:00:36;;;;;;;6.40;4.15;;;5.80;99.90;;;;;;5544029;25;20042;-65
2024/04/22 01:03:02;;;;;;;6.93;3.30;;;5.80;99.90;;;;;;5473278;25;20128;-65
2024/04/22 01:05:28;;;;;;;8.20;3.42;;;5.80;99.90;;;;;;5536530;25;19992;-64
2024/04/22 01:07:57;;;;;;;8.93;3.88;;;5.80;99.90;;;;;;5534872;25;19993;-64
2024/04/22 01:10:23;;;;;;;10.13;3.63;;;5.90;99.90;;;;;;5535183;25;20042;-64
2024/04/22 01:12:49;;;;;;;8.93;3.65;;;5.90;99.90;;;;;;5535136;25;20005;-64
2024/04/22 01:15:15;;;;;;;8.57;4.28;;;6.00;99.90;;;;;;5535262;25;20009;-65
2024/04/22 01:17:43;;;;;;;6.82;4.15;;;5.90;99.90;;;;;;5534933;25;19993;-64
2024/04/22 01:20:10;;;;;;;7.72;3.50;;;5.90;99.90;;;;;;5534945;25;19990;-64
2024/04/22 01:22:36;;;;;;;5.30;3.17;;;5.90;99.90;;;;;;5536250;25;20030;-64
2024/04/22 01:25:03;;;;;;;8.18;3.58;;;5.90;99.90;;;;;;5534852;25;20046;-64
2024/04/22 01:27:31;;;;;;;6.40;3.65;;;5.90;99.90;;;;;;5480975;25;20468;-64
2024/04/22 01:29:58;;;;;;;4.25;2.78;;;5.90;99.90;;;;;;5538494;25;19996;-64
2024/04/22 01:32:23;;;;;;;5.15;2.78;;;5.90;99.90;;;;;;5503297;26;19997;-64
2024/04/22 01:34:54;;;;;;;6.00;3.13;;;5.90;99.90;;;;;;5534827;25;19989;-64
2024/04/22 01:37:20;;;;;;;6.13;3.45;;;5.90;99.90;;;;;;5536050;25;19993;-64
2024/04/22 01:39:45;;;;;;;9.73;4.53;;;5.90;99.90;;;;;;5537182;25;19993;-66
2024/04/22 01:42:11;;;;;;;6.20;3.67;;;5.90;99.90;;;;;;5534504;25;20005;-66
2024/04/22 01:44:37;;;;;;;6.53;3.97;;;5.50;99.90;;;;;;5535009;25;19990;-66
2024/04/22 01:47:02;;;;;;;7.28;3.42;;;5.90;99.90;;;;;;5534539;25;20205;-66
2024/04/22 01:49:28;;;;;;;9.95;4.38;;;5.90;99.90;;;;;;5560359;25;20005;-66
2024/04/22 01:51:54;;;;;;;5.65;3.38;;;5.80;99.90;;;;;;5539150;25;19995;-66
2024/04/22 01:54:19;;;;;;;6.47;2.83;;;5.90;99.90;;;;;;5535727;25;19997;-66
2024/04/22 01:56:48;;;;;;;8.05;3.28;;;5.90;99.90;;;;;;5534529;25;20034;-67
2024/04/22 01:59:13;;;;;;;5.67;3.20;;;5.80;99.90;;;;;;5546470;25;20239;-65
2024/04/22 02:01:40;;;;;;;11.10;3.97;;;5.80;99.90;;;;;;5534406;25;20268;-66
2024/04/22 02:04:06;;;;;;;8.02;4.00;;;5.60;99.90;;;;;;5534197;25;20041;-66
2024/04/22 02:06:31;;;;;;;6.85;4.10;;;5.70;99.90;;;;;;5534320;25;20005;-66
2024/04/22 02:08:57;;;;;;;5.25;3.60;;;5.70;99.90;;;;;;5534378;25;19997;-66
2024/04/22 02:11:23;;;;;;;7.82;3.88;;;5.70;99.90;;;;;;5535467;25;20004;-66
2024/04/22 02:13:49;;;;;;;8.05;4.55;;;5.70;99.90;;;;;;5471043;25;19990;-66
2024/04/22 02:16:14;;;;;;;13.45;4.00;;;5.70;99.90;;;;;;5534338;25;20038;-65
2024/04/22 02:18:40;;;;;;;8.48;4.13;;;5.70;99.90;;;;;;5533985;25;20186;-65
2024/04/22 02:21:05;;;;;;;7.05;3.97;;;5.60;99.90;;;;;;5534044;25;19990;-65
2024/04/22 02:23:31;;;;;;;6.35;3.90;;;5.00;99.90;;;;;;5476239;26;19993;-65
2024/04/22 02:25:57;;;;;;;8.35;4.35;;;5.70;99.90;;;;;;5530366;25;20265;-65
2024/04/22 02:28:22;;;;;;;10.57;4.22;;;5.70;99.90;;;;;;5534958;25;20094;-65
2024/04/22 02:30:48;;;;;;;9.27;4.40;;;5.70;99.90;;;;;;5533779;25;19996;-65
2024/04/22 02:33:14;;;;;;;9.23;3.35;;;5.60;99.90;;;;;;5534056;25;20000;-66
2024/04/22 02:35:40;;;;;;;8.85;3.60;;;5.60;99.90;;;;;;5533740;25;19996;-65
2024/04/22 02:38:06;;;;;;;7.55;3.40;;;5.50;99.90;;;;;;5533435;25;20210;-65
2024/04/22 02:40:32;;;;;;;6.07;3.63;;;5.60;99.90;;;;;;5533376;25;20000;-65
2024/04/22 02:42:58;;;;;;;6.53;3.72;;;5.60;99.90;;;;;;5533398;25;20005;-65
2024/04/22 02:45:27;;;;;;;6.15;3.85;;;5.60;99.90;;;;;;5534566;25;20001;-65
2024/04/22 02:47:53;;;;;;;8.20;3.95;;;5.60;99.90;;;;;;5503180;25;20022;-65
2024/04/22 02:50:19;;;;;;;5.70;3.20;;;5.60;99.90;;;;;;5546806;25;19989;-65
2024/04/22 02:52:44;;;;;;;5.88;3.28;;;5.60;99.90;;;;;;5533636;25;19989;-65
2024/04/22 02:55:10;;;;;;;4.53;2.95;;;5.60;99.90;;;;;;5533465;25;20001;-65
2024/04/22 02:57:36;;;;;;;6.88;3.33;;;5.60;99.90;;;;;;5533707;25;19995;-65
2024/04/22 03:00:04;;;;;;;5.30;3.15;;;5.60;99.90;;;;;;5548095;25;19985;-65
2024/04/22 03:02:30;;;;;;;9.45;4.18;;;5.60;99.90;;;;;;5534583;25;19997;-66
2024/04/22 03:04:56;;;;;;;8.80;4.43;;;5.50;99.90;;;;;;5533173;25;19990;-65
2024/04/22 03:07:21;;;;;;;6.45;3.40;;;5.60;99.90;;;;;;5477772;26;20025;-65
2024/04/22 03:09:47;;;;;;;6.60;3.28;;;5.50;99.90;;;;;;5538961;25;19989;-65
2024/04/22 03:12:13;;;;;;;8.52;3.90;;;5.50;99.90;;;;;;5533343;25;20050;-65
2024/04/22 03:14:39;;;;;;;7.50;3.70;;;5.50;99.90;;;;;;5537697;25;20194;-68
2024/04/22 03:17:05;;;;;;;5.53;4.45;;;5.50;99.90;;;;;;5537497;25;20044;-65
2024/04/22 03:19:31;;;;;;;6.65;3.28;;;5.50;99.90;;;;;;5548347;25;20027;-65
2024/04/22 03:21:57;;;;;;;2.92;2.33;;;5.50;99.90;;;;;;5474680;25;19990;-65
2024/04/22 03:24:23;;;;;;;5.55;3.03;;;5.50;99.90;;;;;;5480646;26;20190;-67
2024/04/22 03:26:48;;;;;;;10.65;4.43;;;5.50;99.90;;;;;;5510665;25;19985;-67
2024/04/22 03:29:14;;;;;;;11.00;4.32;;;5.50;99.90;;;;;;5549023;25;20119;-70
2024/04/22 03:31:40;;;;;;;5.65;3.15;;;5.50;99.90;;;;;;5553856;25;19992;-69
2024/04/22 03:34:05;;;;;;;5.65;3.58;;;5.50;99.90;;;;;;5539626;25;20197;-68
2024/04/22 03:36:31;;;;;;;5.95;3.58;;;5.50;99.90;;;;;;5541032;25;20025;-69
2024/04/22 03:38:57;;;;;;;7.75;4.47;;;5.50;99.90;;;;;;5542917;25;20442;-69
2024/04/22 03:41:23;;;;;;;8.32;3.95;;;5.50;99.90;;;;;;5508216;26;19989;-69
2024/04/22 03:43:48;;;;;;;11.30;4.30;;;5.50;99.90;;;;;;5519966;25;20205;-69
2024/04/22 03:51:44;;;;;;;5.80;3.28;;;5.50;99.90;;;;;;5540267;25;20118;-67
2024/04/22 03:54:09;;;;;;;6.95;4.35;;;5.50;99.90;;;;;;5541295;25;19997;-67
2024/04/22 03:56:35;;;;;;;6.50;3.03;;;5.50;99.90;;;;;;5540280;25;20263;-67
2024/04/22 03:59:01;;;;;;;6.28;3.88;;;5.60;99.90;;;;;;5477933;25;19990;-67
2024/04/22 04:01:26;;;;;;;7.13;3.35;;;5.50;99.90;;;;;;5548604;25;19990;-68
2024/04/22 04:03:52;;;;;;;6.50;3.05;;;5.50;99.90;;;;;;5539866;25;20034;-68
2024/04/22 04:06:18;;;;;;;9.13;4.00;;;5.50;99.90;;;;;;5540341;25;20001;-68
2024/04/22 04:08:46;;;;;;;9.07;3.63;;;5.50;99.90;;;;;;5540271;25;20201;-68
2024/04/22 04:11:12;;;;;;;5.30;3.13;;;5.50;99.90;;;;;;5545168;25;19993;-68
2024/04/22 04:13:43;;;;;;;4.90;2.45;;;5.50;99.90;;;;;;5540201;25;20203;-68
2024/04/22 04:16:09;;;;;;;5.72;2.53;;;5.60;99.90;;;;;;5539743;25;20010;-67
2024/04/22 04:18:39;;;;;;;7.35;4.38;;;5.60;99.90;;;;;;5539966;25;19993;-67
2024/04/22 04:21:05;;;;;;;7.32;3.90;;;5.50;99.90;;;;;;5539877;25;19990;-67
2024/04/22 04:23:32;;;;;;;7.93;3.88;;;5.60;99.90;;;;;;5543562;25;19985;-67
2024/04/22 04:25:58;;;;;;;8.27;4.43;;;5.60;99.90;;;;;;5539798;25;20165;-67
2024/04/22 04:28:24;;;;;;;10.15;3.92;;;5.80;99.90;;;;;;5508640;25;19993;-67
2024/04/22 04:30:57;;;;;;;6.88;3.75;;;5.70;99.90;;;;;;5539536;25;20214;-67
2024/04/22 04:33:23;;;;;;;3.92;2.72;;;;;;;;;;5546927;25;20507;-69
2024/04/22 04:36:01;;;;;;;7.40;3.92;;;6.70;99.90;;;;;;5536427;25;20254;-67
2024/04/22 04:38:27;;;;;;;5.00;3.37;;;5.70;99.90;;;;;;5535313;25;19998;-69
2024/04/22 04:40:53;;;;;;;6.32;3.17;;;5.70;99.90;;;;;;5535074;25;19995;-67
2024/04/22 04:43:19;;;;;;;5.70;3.33;;;5.70;99.90;;;;;;5535182;25;19993;-68
2024/04/22 04:45:45;;;;;;;5.85;3.42;;;5.70;99.90;;;;;;5544756;25;20000;-67
2024/04/22 04:48:11;;;;;;;7.35;3.40;;;5.70;99.90;;;;;;5550850;25;20067;-68
2024/04/22 04:50:36;;;;;;;7.00;2.97;;;5.70;99.90;;;;;;5535144;25;19989;-67
2024/04/22 04:53:02;;;;;;;4.80;2.78;;;5.70;99.90;;;;;;5534899;25;20097;-65
2024/04/22 04:55:28;;;;;;;7.30;3.38;;;5.70;99.90;;;;;;5545048;25;20102;-66
2024/04/22 04:57:53;;;;;;;6.70;3.25;;;5.70;99.90;;;;;;5542513;25;19992;-66
2024/04/22 05:00:19;;;;;;;4.93;3.13;;;5.70;99.90;;;;;;5557216;25;19985;-66
2024/04/22 05:02:45;;;;;;;6.13;4.07;;;5.80;99.90;;;;;;5549136;25;19985;-64
2024/04/22 05:05:11;;;;;;;4.60;3.13;;;5.70;99.90;;;;;;5534896;25;19994;-64
2024/04/22 05:07:37;;;;;;;5.53;3.55;;;5.80;99.90;;;;;;5534980;25;20091;-66
2024/04/22 05:10:03;;;;;;;4.63;2.85;;;5.70;99.90;;;;;;5534790;25;20000;-67
2024/04/22 05:12:29;;;;;;;4.95;2.92;;;5.70;99.90;;;;;;5534899;25;19997;-66
2024/04/22 05:14:54;;;;;;;4.60;2.95;;;5.70;99.90;;;;;;5536599;25;19985;-66
2024/04/22 05:17:20;;;;;;;6.80;3.45;;;5.80;99.90;;;;;;5548023;25;19996;-66
2024/04/22 05:19:46;;;;;;;5.05;3.08;;;5.70;99.90;;;;;;5536089;25;19985;-67
2024/04/22 05:22:11;;;;;;;5.65;3.50;;;5.70;99.90;;;;;;5534537;25;19992;-65
2024/04/22 05:24:37;;;;;;;8.32;3.53;;;5.80;99.90;;;;;;5505761;25;19998;-67
2024/04/22 05:27:03;;;;;;;5.13;3.10;;;5.90;99.90;;;;;;5532093;25;20374;-67
2024/04/22 05:29:29;;;;;;;5.68;3.05;;;5.90;99.90;;;;;;5542986;25;19990;-68
2024/04/22 05:31:55;;;;;;;4.60;3.83;;;6.00;99.90;;;;;;5538519;25;19981;-67
2024/04/22 05:37:05;;;;;;;7.82;3.05;;;6.10;99.90;;;;;;5535542;25;20448;-66
2024/04/22 05:39:31;;;;;;;5.88;3.45;;;6.10;99.90;;;;;;5534272;25;19997;-70
2024/04/22 05:41:57;;;;;;;8.50;2.75;;;;;;;;;;5533957;25;19997;-67
2024/04/22 05:44:23;;;;;;;6.05;3.15;;;6.00;99.90;;;;;;5509022;26;19987;-68
2024/04/22 05:46:48;;;;;;;8.43;4.45;;;6.30;99.90;;;;;;5489803;25;20090;-68
2024/04/22 05:49:14;;;;;;;5.22;3.25;;;6.30;99.90;;;;;;5533406;25;19989;-69
2024/04/22 05:51:40;;;;;;;3.97;2.83;;;6.30;99.90;;;;;;5552378;25;20157;-68
2024/04/22 05:54:08;;;;;;;5.65;3.22;;;6.40;99.90;;;;;;5544801;25;20182;-67
2024/04/22 05:56:34;;;;;;;6.70;3.90;;;6.40;99.90;;;;;;5534302;25;19997;-68
2024/04/22 05:59:00;;;;;;;7.88;3.97;;;6.50;99.90;;;;;;5542048;25;19985;-68
2024/04/22 06:01:26;;;;;;;5.95;3.25;;;6.50;99.90;;;;;;5540599;25;19985;-68
2024/04/22 06:03:53;;;;;;;6.50;3.67;;;6.40;99.90;;;;;;5532181;25;19992;-68
2024/04/22 06:06:18;;;;;;;7.00;3.60;;;6.40;99.90;;;;;;5532992;25;20198;-67
2024/04/22 06:08:44;;;;;;;4.82;3.33;;;6.40;99.90;;;;;;5533549;25;19993;-69
2024/04/22 06:11:10;;;;;;;5.65;3.05;;;6.40;99.90;;;;;;5534985;25;19986;-70
2024/04/22 06:13:36;;;;;;;4.22;2.90;;;6.40;99.90;;;;;;5546734;25;20017;-70
2024/04/22 06:16:02;;;;;;;11.27;4.13;;;6.40;99.90;;;;;;5536431;25;19982;-70
2024/04/22 06:18:27;;;;;;;5.13;3.42;;;6.50;99.90;;;;;;5543383;25;19997;-69
2024/04/22 06:20:53;;;;;;;7.35;3.83;;;6.50;99.90;;;;;;5533933;25;20047;-69
2024/04/22 06:23:19;;;;;;;4.70;3.30;;;6.80;99.90;;;;;;5534036;25;20190;-68
2024/04/22 06:25:45;;;;;;;7.45;3.70;;;7.00;99.90;;;;;;5533846;25;20005;-68
2024/04/22 06:28:11;;;;;;;3.42;2.90;;;6.60;99.90;;;;;;5502836;25;20001;-68
2024/04/22 06:30:36;;;;;;;7.85;3.95;;;6.60;99.90;;;;;;5533838;25;20305;-68
2024/04/22 06:33:02;;;;;;;9.55;4.68;;;6.50;99.90;;;;;;5504211;25;20000;-67
2024/04/22 06:35:28;;;;;;;6.35;4.05;;;6.60;99.90;;;;;;5533706;25;20038;-69
2024/04/22 06:37:54;;;;;;;8.75;3.58;;;6.70;99.90;;;;;;5503279;25;20033;-69
2024/04/22 06:40:21;;;;;;;6.05;3.40;;;6.70;99.90;;;;;;5535905;25;20000;-69
2024/04/22 06:42:47;;;;;;;4.32;2.85;;;6.90;99.90;;;;;;5533926;25;20068;-68
2024/04/22 06:45:13;;;;;;;3.97;2.80;;;6.80;99.90;;;;;;5539754;25;20205;-69
2024/04/22 06:47:38;;;;;;;5.07;3.17;;;6.60;99.90;;;;;;5535301;25;19990;-69
2024/04/22 06:50:04;;;;;;;4.93;2.88;;;6.60;99.90;;;;;;5533750;25;19985;-68
2024/04/22 06:52:30;;;;;;;4.18;3.50;;;6.70;99.90;;;;;;5533710;25;19990;-69
2024/04/22 06:54:55;;;;;;;6.93;3.78;;;6.50;99.90;;;;;;5533951;25;20004;-68
2024/04/22 06:57:21;;;;;;;6.68;3.20;;;6.80;99.90;;;;;;5535116;25;19990;-68
2024/04/22 06:59:47;;;;;;;7.18;3.75;;;6.60;99.90;;;;;;5542826;25;20021;-68
2024/04/22 07:02:13;;;;;;;5.95;3.35;;;6.70;99.90;;;;;;5497341;26;20536;-68
2024/04/22 07:04:38;;;;;;;6.22;3.65;;;6.70;99.90;;;;;;5525043;25;20042;-70
2024/04/22 07:07:04;;;;;;;6.93;4.22;;;6.90;99.90;;;;;;5533422;25;20041;-70
2024/04/22 07:09:30;;;;;;;4.25;3.45;;;;;;;;;;5533610;25;20000;-70
2024/04/22 07:11:56;;;;;;;6.90;3.72;;;6.90;99.90;;;;;;5533306;25;20004;-70
2024/04/22 07:14:22;;;;;;;4.53;3.22;;;7.10;99.90;;;;;;5533616;25;20320;-69
2024/04/22 07:16:55;;;;;;;5.95;3.47;;;7.10;99.90;;;;;;5533147;25;20025;-68
2024/04/22 07:19:21;;;;;;;4.53;3.30;;;7.00;99.90;;;;;;5534262;25;20004;-69
2024/04/22 07:21:47;;;;;;;6.68;3.80;;;7.10;99.90;;;;;;5501239;26;20001;-68
2024/04/22 07:24:13;;;;;;;5.75;3.25;;;7.10;99.90;;;;;;5532989;25;20053;-67
2024/04/22 07:26:38;;;;;;;5.90;3.05;;;7.20;99.90;;;;;;5539637;25;20002;-66
2024/04/22 07:29:04;;;;;;;6.28;2.90;;;7.30;99.90;;;;;;5532809;25;19986;-67
2024/04/22 07:31:32;;;;;;;4.80;2.60;;;7.20;99.90;;;;;;5532777;25;20415;-67
2024/04/22 07:33:58;;;;;;;3.70;2.30;;;7.30;99.90;;;;;;5532633;25;19996;-67
2024/04/22 07:36:34;;;;;;;3.95;2.25;;;7.30;99.90;;;;;;5541089;25;19989;-67
2024/04/22 07:39:04;;;;;;;3.42;1.80;;;7.30;99.90;;;;;;5535924;25;20202;-67
2024/04/22 07:41:30;;;;;;;2.40;1.83;;;7.40;99.90;;;;;;5532882;25;20098;-68
2024/04/22 07:43:56;;;;;;;2.47;1.90;;;7.60;99.90;;;;;;5548305;25;19989;-69
2024/04/22 07:46:22;;;;;;;2.88;1.75;;;7.60;99.90;;;;;;5542206;25;20109;-65
2024/04/22 07:48:48;;;;;;;2.45;1.98;;;7.70;99.90;;;;;;5541267;25;19989;-66
2024/04/22 07:51:15;;;;;;;3.40;1.95;;;7.80;99.90;;;;;;5533271;25;20013;-66
2024/04/22 07:53:41;;;;;;;2.63;1.95;;;8.00;99.90;;;;;;5532699;25;19992;-68
2024/04/22 07:56:14;;;;;;;3.15;2.33;;;8.10;99.90;;;;;;5535723;25;20422;-65
2024/04/22 07:58:41;;;;;;;2.05;1.75;;;8.20;99.90;;;;;;5546243;25;20004;-64
2024/04/22 08:01:07;;;;;;;3.10;2.40;;;8.40;99.90;;;;;;5545096;25;20404;-66
2024/04/22 08:03:33;;;;;;;2.90;1.70;;;8.60;99.90;;;;;;5545189;25;19985;-67
2024/04/22 08:06:12;;;;;;;3.90;2.60;;;8.80;99.90;;;;;;5531973;25;20000;-67
2024/04/22 08:08:39;;;;;;;2.83;1.95;;;9.00;99.90;;;;;;5533419;25;20001;-67
2024/04/22 08:11:05;;;;;;;3.47;2.20;;;9.40;99.90;;;;;;5533181;25;20122;-67
2024/04/22 08:13:31;;;;;;;3.75;1.40;;;9.30;99.90;;;;;;5504114;26;19996;-67
2024/04/22 08:15:57;;;;;;;2.78;1.80;;;;;;;;;;5530517;25;19985;-67
2024/04/22 08:18:24;;;;;;;3.95;1.98;;;;;;;;;;5547210;25;19997;-67
2024/04/22 08:20:50;;;;;;;2.47;1.67;;;;;;;;;;5539728;25;19997;-68
2024/04/22 08:23:16;;;;;;;3.67;2.28;;;;;;;;;;5535659;25;20202;-68
2024/04/22 08:25:42;;;;;;;2.75;1.90;;;9.10;99.90;;;;;;5536870;25;19993;-67
2024/04/22 08:28:08;;;;;;;4.53;2.40;;;9.20;99.90;;;;;;5535446;25;20001;-68
2024/04/22 08:30:34;;;;;;;4.35;2.38;;;9.10;99.90;;;;;;5540883;25;19985;-68
2024/04/22 08:33:00;;;;;;;2.13;1.58;;;;;;;;;;5535459;25;20004;-68
2024/04/22 08:35:27;;;;;;;3.58;2.20;;;9.80;99.90;;;;;;5535860;25;19996;-68
2024/04/22 08:37:53;;;;;;;3.08;1.83;;;9.70;99.90;;;;;;5535707;25;20026;-68
2024/04/22 08:40:19;;;;;;;2.95;1.92;;;10.00;99.90;;;;;;5535880;25;19998;-68
2024/04/22 08:42:46;;;;;;;2.33;1.50;;;10.10;99.90;;;;;;5536803;25;20035;-67
2024/04/22 08:45:12;;;;;;;3.90;1.50;;;9.90;99.60;;;;;;5503889;25;20029;-68
2024/04/22 08:47:37;;;;;;;2.53;1.90;;;9.90;99.50;;;;;;5551152;25;19993;-67
2024/04/22 08:50:04;;;;;;;5.53;2.30;;;9.80;99.90;;;;;;5535256;25;20005;-67
2024/04/22 08:52:29;;;;;;;3.10;2.28;;;9.70;99.90;;;;;;5535272;25;20001;-67
2024/04/22 08:54:56;;;;;;;2.72;2.17;;;9.60;99.90;;;;;;5535226;25;19990;-67
2024/04/22 08:57:22;;;;;;;3.28;2.03;;;9.50;99.90;;;;;;5535411;25;19986;-67
2024/04/22 08:59:48;;;;;;;3.10;1.83;;;;;;;;;;5504331;25;19996;-67
2024/04/22 09:02:14;;;;;;;3.17;2.45;;;9.10;99.90;;;;;;5535093;25;20091;-67
2024/04/22 09:04:41;;;;;;;2.80;1.88;;;;;;;;;;5540119;25;19989;-67
2024/04/22 09:07:14;;;;;;;3.25;2.35;;;9.30;99.90;;;;;;5535112;25;20034;-67
2024/04/22 09:09:43;;;;;;;4.05;2.63;;;9.40;99.90;;;;;;5535147;25;20004;-67
2024/04/22 09:12:13;;;;;;;3.63;2.47;;;9.50;99.40;;;;;;5538967;25;19994;-68
2024/04/22 09:14:39;;;;;;;2.70;2.13;;;9.90;99.90;;;;;;5548244;25;19993;-67
2024/04/22 09:17:04;;;;;;;3.35;2.15;;;9.70;99.90;;;;;;5538043;25;20061;-67
2024/04/22 09:19:30;;;;;;;2.75;1.40;;;9.80;99.90;;;;;;5534875;25;20005;-67
2024/04/22 09:21:57;;;;;;;3.17;2.20;;;9.60;99.90;;;;;;5534600;25;20190;-67
2024/04/22 09:24:24;;;;;;;3.67;1.98;;;10.40;99.90;;;;;;5535192;25;20057;-68
2024/04/22 09:26:49;;;;;;;2.83;1.70;;;9.90;97.40;;;;;;5534755;25;19993;-67
2024/04/22 09:29:18;;;;;;;4.03;1.70;;;9.80;99.90;;;;;;5535229;25;20001;-67
2024/04/22 09:31:46;;;;;;;;;;;9.90;97.50;;;;;;5535658;25;19993;-67
2024/04/22 09:34:12;;;;;;;2.20;1.27;;;9.90;99.90;;;;;;5536228;25;19927;-68
2024/04/22 09:36:40;;;;;;;2.30;1.60;;;10.10;99.90;;;;;;5535285;25;20079;-67
2024/04/22 09:39:07;;;;;;;2.55;1.83;;;10.10;99.90;;;;;;5534861;25;19997;-67
2024/04/22 09:41:34;;;;;;;3.22;1.85;;;10.30;95.40;;;;;;5535053;25;20021;-67
2024/04/22 09:44:03;;;;;;;1.73;1.48;;;10.30;99.90;;;;;;5534458;25;19986;-68
2024/04/22 09:46:31;;;;;;;4.45;1.17;;;10.10;99.90;;;;;;5534648;25;19986;-68
2024/04/22 09:48:57;;;;;;;2.23;1.73;;;10.00;99.90;;;;;;5534425;25;19997;-67
2024/04/22 09:51:24;;;;;;;1.98;1.50;;;9.60;99.90;;;;;;5535765;25;20210;-66
2024/04/22 09:53:51;;;;;;;2.42;1.40;;;9.50;99.90;;;;;;5472451;25;20010;-67
2024/04/22 09:56:26;;;;;;;2.53;1.60;;;9.40;99.90;;;;;;5534271;25;20025;-67
2024/04/22 09:58:52;;;;;;;2.15;1.45;;;9.50;99.90;;;;;;5534230;25;20110;-66
2024/04/22 10:01:19;;;;;;;2.40;1.63;;;9.50;99.10;;;;;;5534426;25;19990;-66
2024/04/22 10:03:45;;;;;;;2.08;1.42;;;9.50;99.90;;;;;;5539451;25;19993;-67
2024/04/22 10:06:11;;;;;;;2.50;1.75;;;9.50;99.90;;;;;;5537773;25;20150;-67
2024/04/22 10:08:37;;;;;;;2.88;1.45;;;9.40;99.90;;;;;;5547609;25;20001;-67
2024/04/22 10:11:06;;;;;;;2.47;1.58;;;9.80;99.90;;;;;;5551300;25;19993;-66
2024/04/22 10:13:32;;;;;;;2.13;1.73;;;9.70;99.90;;;;;;5548082;25;19985;-67
2024/04/22 10:15:58;;;;;;;2.95;1.63;;;10.10;99.90;;;;;;5541468;25;20040;-66
2024/04/22 10:18:23;;;;;;;2.80;1.13;;;9.90;99.90;;;;;;5534494;25;19991;-67
2024/04/22 10:20:50;;;;;;;1.63;1.15;;;10.00;99.90;;;;;;5534287;25;20000;-65
2024/04/22 10:23:16;;;;;;;2.78;1.60;;;10.00;99.90;;;;;;5480291;26;20015;-66
2024/04/22 10:25:43;;;;;;;1.25;1.10;;;10.10;99.90;;;;;;5527787;25;19993;-66
2024/04/22 10:28:11;;;;;;;2.15;1.58;;;9.90;99.90;;;;;;5533495;25;20187;-67
2024/04/22 10:30:39;;;;;;;2.40;1.48;;;10.00;99.90;;;;;;5534524;25;19989;-66
2024/04/22 10:33:05;;;;;;;5.22;2.08;;;9.90;99.90;;;;;;5501517;25;20295;-66
2024/04/22 10:35:31;;;;;;;2.25;1.38;;;10.00;99.90;;;;;;5543143;25;19989;-66
2024/04/22 10:37:58;;;;;;;2.03;1.40;;;10.10;99.90;;;;;;5548486;25;20202;-66
2024/04/22 10:40:24;;;;;;;1.85;1.20;;;10.10;99.90;;;;;;5546039;25;19993;-67
2024/04/22 10:42:50;;;;;;;3.92;2.13;;;10.00;99.90;;;;;;5547118;25;19996;-67
2024/04/22 10:45:16;;;;;;;2.72;1.73;;;10.50;99.90;;;;;;5533753;25;19993;-66
2024/04/22 10:47:42;;;;;;;3.50;1.67;;;10.40;99.90;;;;;;5533757;25;20095;-67
2024/04/22 10:50:19;;;;;;;1.58;1.25;;;10.40;99.90;;;;;;5533281;25;20012;-67
2024/04/22 10:52:45;;;;;;;2.38;1.75;;;10.40;99.90;;;;;;5533585;25;20345;-66
2024/04/22 10:55:11;;;;;;;1.77;1.48;;;10.40;99.90;;;;;;5533368;25;19986;-67
2024/04/22 10:57:37;;;;;;;1.80;1.40;;;10.40;99.90;;;;;;5533738;25;20222;-67
2024/04/22 11:00:04;;;;;;;3.17;1.67;;;10.50;99.90;;;;;;5543328;25;19994;-67
2024/04/22 11:02:32;;;;;;;1.77;1.25;;;10.80;91.30;;;;;;5535498;25;20045;-67
2024/04/22 11:05:02;;;;;;;1.73;1.63;;;11.60;97.80;;;;;;5541380;25;20267;-68
2024/04/22 11:07:30;;;;;;;2.83;1.90;;;11.80;87.30;;;;;;5534565;25;20202;-67
2024/04/22 11:09:59;;;;;;;1.98;1.40;;;12.30;84.50;;;;;;5533626;25;20013;-67
2024/04/22 11:12:27;;;;;;;1.98;1.38;;;12.70;81.30;;;;;;5533940;25;20224;-67
2024/04/22 11:14:53;;;;;;;2.08;1.48;;;13.10;80.30;;;;;;5533588;25;20000;-68
2024/04/22 11:17:23;;;;;;;2.50;1.30;;;13.40;96.00;;;;;;5547418;25;20121;-68
2024/04/22 11:19:50;;;;;;;2.03;1.63;;;13.40;78.10;;;;;;5539293;25;20005;-68
2024/04/22 11:22:19;;;;;;;1.98;1.48;;;13.60;77.50;;;;;;5498875;25;19991;-68
2024/04/22 11:24:45;;;;;;;2.50;1.40;;;13.50;76.70;;;;;;5533332;25;20000;-68
2024/04/22 11:27:12;;;;;;;1.63;1.23;;;13.30;78.20;;;;;;5536712;25;20198;-68
2024/04/22 11:29:39;;;;;;;1.52;1.27;;;13.30;77.00;;;;;;5533267;25;20005;-68
2024/04/22 11:32:05;;;;;;;2.70;1.75;;;13.00;77.80;;;;;;5532915;25;19996;-68
2024/04/22 11:34:31;;;;;;;1.88;1.27;;;13.00;77.50;;;;;;5515376;26;19993;-68
2024/04/22 11:36:58;;;;;;;1.42;1.23;;;13.10;77.50;;;;;;5532706;25;19985;-68
2024/04/22 11:39:28;;;;;;;1.73;1.25;;;13.20;77.50;;;;;;5539909;25;20001;-68
2024/04/22 11:41:54;;;;;;;1.10;1.00;;;12.00;97.10;;;;;;5536442;25;20000;-67
2024/04/22 11:44:20;;;;;;;1.88;1.40;;;12.20;78.10;;;;;;5532695;25;19996;-68
2024/04/22 11:46:47;;;;;;;1.67;0.95;;;12.30;78.70;;;;;;5536147;25;19989;-69
2024/04/22 11:49:13;;;;;;;1.20;1.05;;;12.50;77.30;;;;;;5540081;25;19993;-68
2024/04/22 11:51:39;;;;;;;2.03;1.23;;;12.50;75.80;;;;;;5540936;25;20000;-68
2024/04/22 11:54:05;;;;;;;1.73;1.35;;;12.40;75.70;;;;;;5548431;25;20367;-67
2024/04/22 11:56:35;;;;;;;3.00;1.75;;;12.30;76.30;;;;;;5543976;25;19999;-67
2024/04/22 11:59:04;;;;;;;2.05;1.13;;;12.20;76.40;;;;;;5539310;25;20006;-67
2024/04/22 12:01:30;;;;;;;1.95;1.05;;;12.20;76.60;;;;;;5536493;25;20053;-68
2024/04/22 12:03:56;;;;;;;1.45;1.35;;;12.10;76.30;;;;;;5538906;25;19996;-68
2024/04/22 12:06:21;;;;;;;2.08;1.50;;;12.20;96.00;;;;;;5565145;25;19993;-68
2024/04/22 12:08:47;;;;;;;2.28;1.35;;;12.30;75.20;;;;;;5554665;25;20000;-67
2024/04/22 12:11:13;;;;;;;1.33;1.00;;;12.40;75.70;;;;;;5538137;25;20000;-67
2024/04/22 12:13:39;;;;;;;2.65;1.70;;;12.30;75.10;;;;;;5545370;25;20046;-68
2024/04/22 12:16:05;;;;;;;2.05;1.20;;;12.30;74.40;;;;;;5566866;25;19996;-68
2024/04/22 12:18:31;;;;;;;1.70;0.98;;;12.30;74.00;;;;;;5546654;25;19997;-67
2024/04/22 12:20:57;;;;;;;2.08;1.08;;;12.30;74.90;;;;;;5537932;25;20001;-67
2024/04/22 12:23:23;;;;;;;1.17;1.08;;;12.20;74.90;;;;;;5536933;25;19993;-68
2024/04/22 12:25:48;;;;;;;4.45;1.50;;;12.30;74.50;;;;;;5535457;25;20001;-67
2024/04/22 12:28:14;;;;;;;1.15;0.82;;;12.30;74.20;;;;;;5541086;25;19997;-68
2024/04/22 12:30:40;;;;;;;2.92;1.23;;;12.20;73.90;;;;;;5557378;25;20048;-68
2024/04/22 12:33:06;;;;;;;1.52;1.20;;;12.20;73.70;;;;;;5537103;25;19993;-67
2024/04/22 12:35:32;;;;;;;1.63;1.10;;;12.20;73.50;;;;;;5535260;25;20229;-68
2024/04/22 12:37:58;;;;;;;1.00;0.95;;;;;;;;;;5503519;25;19994;-68
2024/04/22 12:40:23;;;;;;;1.80;1.50;;;12.50;70.80;;;;;;5536409;25;20013;-68
2024/04/22 12:42:49;;;;;;;1.20;1.10;;;12.50;72.10;;;;;;5535200;25;20034;-68
2024/04/22 12:45:15;;;;;;;1.83;1.10;;;12.50;72.20;;;;;;5535427;25;19985;-68
2024/04/22 12:50:44;;;;;;;1.60;0.98;;;12.40;72.60;;;;;;5539927;25;19997;-68
2024/04/22 12:53:11;;;;;;;2.47;1.27;;;14.00;73.60;;;;;;5473048;25;20322;-67
2024/04/22 12:55:36;;;;;;;3.08;1.40;;;12.20;95.30;;;;;;5535565;25;20227;-66
2024/04/22 12:58:02;;;;;;;4.50;1.70;;;12.20;73.30;;;;;;5564398;25;19985;-65
2024/04/22 13:00:28;;;;;;;2.50;1.10;;;12.10;73.30;;;;;;5535666;25;20198;-65
2024/04/22 13:02:55;;;;;;;1.17;0.98;;;12.00;73.80;;;;;;5546206;25;19984;-65
2024/04/22 13:05:22;;;;;;;0.93;0.88;;;11.90;74.10;;;;;;5528992;25;19988;-66